Decoded Metar for KCCA ( in _UNIDENTIFIED) (IATA:N/A) | Meteo·Mobile Aviation Weather
aviador You're here:

KCCA Decoded Metar

in _UNIDENTIFIED
Report Time2018-10-22 13:35:00
UTC Time2018-10-22 13:52:50
Flight Rules vfr VFR
WindCalm
Visibility9999 m
Phenomena:N/A
Clouds:N/A
CeilingNone
Temp02°C (ISA -12)
Dew Point02°C (100% RH)
AAT0.3°C
QNH1026 hPa
Density Alt-1,283 ft
Elevation515 ft
Report Wrong Elevation
Raw Report
KCCA 221335Z AUTO 00000KT 10SM CLR 02/02 A3030 RMK AO2=

Extra information for KCCA:More info

Metar Taf Metar & Taf Last 4 Metars F.Rules Stats Wind Profile Meteogram Temp Stats Metar ALERT Operation Metar Decoded Social comments